KSTL/STL METAR and TAF weather

Enter ICAO airport designator
Example: see airport list
Station Type Date Time Source
KSTL METAR 2016/09/29 21:51 UTC NOAA

KSTL 292151Z 01009KT 10SM BKN038 OVC046 20/12 A3016 RMK AO2 SLP210 T02000117


Station Type Date Time Source
KSTL Decoded METAR 2016/09/29 21:51 UTC NOAA

LAMBERT-ST LOUIS INTERNATIONAL AIRPORT , MO, United States (KSTL) 38-45N 90-22W 171M
Sep 29, 2016 - 05:51 PM EDT / 2016.09.29 2151 UTC
Wind: from the N (010 degrees) at 10 MPH (9 KT):0
Visibility: 10 mile(s):0
Sky conditions: overcast
Temperature: 68.0 F (20.0 C)
Dew Point: 53.1 F (11.7 C)
Relative Humidity: 58%
Pressure (altimeter): 30.16 in. Hg (1021 hPa)
ob: KSTL 292151Z 01009KT 10SM BKN038 OVC046 20/12 A3016 RMK AO2 SLP210 T02000117
cycle: 22

Station Type Date Time Source
KSTL TAF 2016/09/29 21:03 UTC NOAA

TAF
AMD KSTL 292101Z 2921/3024 34011G20KT P6SM BKN035
FM300000 35007KT P6SM OVC035
FM300600 36006KT P6SM SCT008 OVC012
FM300800 35006KT P6SM BKN008
FM301600 34011KT P6SM VCSH OVC010